Flight Track Log - Related Links

Times and Time Zones

All times are in EDT time to prevent confusion due to time zone crossing. See the DAL1981 flight status page for this flight to view local times or setup timezone preferences in your user account.

Time Position Orientation Groundspeed Altitude Reporting Facility
EDT Latitude Longitude Course Direction KTS MPH feet Rate Location/Type
Thu 03:53:43 PM 38.7333 -121.5833 78° East 156 180 1,600  Level Northern Cal TRACON
Thu 03:54:37 PM 38.7500 -121.5333 67° East 218 251 2,600 1,737 Climbing Northern Cal TRACON
Thu 03:55:37 PM 38.7500 -121.4333 90° East 273 314 4,900 2,150 Climbing Northern Cal TRACON
Thu 03:56:00 PM 38.5003 -121.2324 67° East  Level FlightAware Approximate
Thu 03:56:37 PM 38.7500 -121.3333 90° East 289 333 6,900  Level Northern Cal TRACON
Thu 03:57:00 PM 38.5398 -121.0676 76° East  Level FlightAware Approximate
Thu 03:57:37 PM 38.7500 -121.2333 90° East 301 346 9,300  Level Northern Cal TRACON
Thu 03:58:00 PM 38.5697 -120.8990 78° East  Level FlightAware Approximate
Thu 03:58:37 PM 38.7333 -121.1167 100° East 330 380 11,000  Level Northern Cal TRACON
Thu 03:59:23 PM 38.7394 -121.0342 85° East 359 413 11,600 1,458 Climbing Oakland Center
Thu 04:00:24 PM 38.7364 -120.8908 92° East 393 452 13,600 1,854 Climbing Oakland Center
Thu 04:01:26 PM 38.7553 -120.7514 80° East 409 471 15,400 1,805 Climbing Oakland Center
Thu 04:02:27 PM 38.8278 -120.6378 51° Northeast 410 472 17,300 1,770 Climbing Oakland Center
Thu 04:03:28 PM 38.9036 -120.5211 50° Northeast 424 488 19,000 1,707 Climbing Oakland Center
Thu 04:04:30 PM 38.9956 -120.3778 50° Northeast 433 498 20,800 1,610 Climbing Oakland Center
Thu 04:05:31 PM 39.0747 -120.2550 50° Northeast 444 511 22,300 1,317 Climbing Oakland Center
Thu 04:06:33 PM 39.1589 -120.1239 50° Northeast 454 522 23,500 1,122 Climbing Oakland Center
Thu 04:07:34 PM 39.2411 -119.9964 50° Northeast 464 534 24,600 934 Climbing Oakland Center
Thu 04:08:35 PM 39.3281 -119.8617 50° Northeast 480 552 25,400 780 Climbing Oakland Center
Thu 04:09:37 PM 39.4147 -119.7242 51° Northeast 489 563 26,200 585 Climbing Oakland Center
Thu 04:10:38 PM 39.5039 -119.5811 51° Northeast 502 578 26,600 836 Climbing Oakland Center
Thu 04:11:39 PM 39.5961 -119.4347 51° Northeast 517 595 27,900 1,220 Climbing Oakland Center
Thu 04:12:41 PM 39.6875 -119.2872 51° Northeast 520 598 29,100 1,024 Climbing Oakland Center
Thu 04:13:42 PM 39.7789 -119.1422 51° Northeast 517 595 30,000 439 Climbing Oakland Center
Thu 04:14:44 PM 39.8681 -118.9981 51° Northeast 509 586 30,000  Level Oakland Center
Thu 04:15:45 PM 39.9572 -118.8514 52° Northeast 511 588 30,000 246 Level Oakland Center
Thu 04:16:46 PM 40.0469 -118.7061 51° Northeast 511 588 30,500 488 Climbing Oakland Center
Thu 04:17:48 PM 40.1200 -118.5039 65° Northeast 510 587 31,000 244 Climbing Oakland Center
Thu 04:18:49 PM 40.1708 -118.3272 69° East 514 592 31,000  Level Oakland Center
Thu 04:19:50 PM 40.2225 -118.1486 69° East 520 598 31,000  Level Oakland Center
Thu 04:20:51 PM 40.2728 -117.9775 69° East 520 598 31,000  Level Oakland Center
Thu 04:21:53 PM 40.3214 -117.8044 70° East 524 603 31,000  Level Oakland Center
Thu 04:22:54 PM 40.3794 -117.6000 69° East 533 613 31,000 49 Level Oakland Center
Thu 04:23:55 PM 40.4297 -117.4256 69° East 533 613 31,100 79 Climbing Oakland Center
Thu 04:24:10 PM 40.4383 -117.3956 69° East 533 613 31,100 -78 Level Salt Lake Center
Thu 04:25:12 PM 40.4956 -117.1897 70° East 534 615 31,000 -48 Descending Salt Lake Center
Thu 04:26:14 PM 40.5450 -117.0103 70° East 536 617 31,000 48 Level Salt Lake Center
Thu 04:27:16 PM 40.6153 -116.8053 66° East 540 621 31,100  Climbing Salt Lake Center
Thu 04:28:18 PM 40.6825 -116.6356 62° Northeast 541 623 31,000 -48 Descending Salt Lake Center
Thu 04:29:20 PM 40.7478 -116.4669 63° Northeast 540 621 31,000  Level Salt Lake Center
Thu 04:30:22 PM 40.8269 -116.2639 63° Northeast 553 636 31,000  Level Salt Lake Center
Thu 04:31:24 PM 40.8936 -116.0875 63° Northeast 558 642 31,000 48 Level Salt Lake Center
Thu 04:32:26 PM 40.9708 -115.8847 63° Northeast 555 639 31,100  Climbing Salt Lake Center
Thu 04:33:28 PM 41.0364 -115.7086 64° Northeast 556 640 31,000 -48 Descending Salt Lake Center
Thu 04:34:30 PM 41.1142 -115.5058 63° Northeast 553 636 31,000  Level Salt Lake Center
Thu 04:35:32 PM 41.1786 -115.3331 64° Northeast 549 632 31,000  Level Salt Lake Center
Thu 04:36:34 PM 41.2525 -115.1300 64° Northeast 547 629 31,000 -48 Level Salt Lake Center
Thu 04:37:36 PM 41.3167 -114.9578 64° Northeast 543 625 30,900  Descending Salt Lake Center
Thu 04:38:38 PM 41.3789 -114.7847 64° Northeast 544 626 31,000 97 Climbing Salt Lake Center
Thu 04:39:40 PM 41.4597 -114.5669 64° Northeast 546 628 31,100  Climbing Salt Lake Center
Thu 04:40:42 PM 41.5247 -114.3861 64° Northeast 542 624 31,000 -48 Descending Salt Lake Center
Thu 04:41:44 PM 41.5900 -114.2031 64° Northeast 545 627 31,000  Level Salt Lake Center
Thu 04:42:45 PM 41.6556 -114.0186 65° Northeast 548 631 31,000 49 Level Salt Lake Center
Thu 04:43:47 PM 41.7222 -113.8333 64° Northeast 552 635 31,100 48 Climbing Salt Lake Center
Thu 04:44:49 PM 41.7867 -113.6511 65° Northeast 543 625 31,100 -97 Level Salt Lake Center
Thu 04:45:51 PM 41.8497 -113.4692 65° Northeast 538 619 30,900 -48 Descending Salt Lake Center
Thu 04:46:53 PM 41.9272 -113.2506 64° Northeast 542 624 31,000 97 Climbing Salt Lake Center
Thu 04:47:55 PM 41.9889 -113.0686 65° Northeast 539 620 31,100  Climbing Salt Lake Center
Thu 04:48:57 PM 42.0508 -112.8900 65° Northeast 530 610 31,000 -48 Descending Salt Lake Center
Thu 04:49:59 PM 42.1108 -112.7100 66° East 528 608 31,000  Level Salt Lake Center
Thu 04:51:01 PM 42.1728 -112.5303 65° Northeast 527 606 31,000  Level Salt Lake Center
Thu 04:52:03 PM 42.2328 -112.3500 66° East 529 609 31,000  Level Salt Lake Center
Thu 04:53:05 PM 42.2922 -112.1658 66° East 534 615 31,000  Level Salt Lake Center
Thu 04:54:07 PM 42.3633 -111.9469 66° East 531 611 31,000  Level Salt Lake Center
Thu 04:55:09 PM 42.4225 -111.7633 66° East 532 612 31,000  Level Salt Lake Center
Thu 04:56:11 PM 42.4817 -111.5806 66° East 532 612 31,000  Level Salt Lake Center
Thu 04:57:13 PM 42.5586 -111.4092 59° Northeast 534 615 31,000  Level Salt Lake Center
Thu 04:58:15 PM 42.6372 -111.2386 58° Northeast 534 615 31,000  Level Salt Lake Center
Thu 04:59:17 PM 42.6908 -111.0517 69° East 531 611 31,000  Level Salt Lake Center
Thu 05:00:19 PM 42.7369 -110.8325 74° East 526 605 31,000  Level Salt Lake Center
Thu 05:01:20 PM 42.7703 -110.6489 76° East 524 603 31,000 49 Level Salt Lake Center
Thu 05:02:22 PM 42.8083 -110.4392 76° East 516 594 31,100  Climbing Salt Lake Center
Thu 05:03:24 PM 42.8414 -110.2561 76° East 519 597 31,000 -48 Descending Salt Lake Center
Thu 05:04:26 PM 42.8786 -110.0442 76° East 518 596 31,000  Level Salt Lake Center
Thu 05:05:28 PM 42.9122 -109.8478 77° East 517 595 31,000  Level Salt Lake Center
Thu 05:06:30 PM 42.9458 -109.6625 76° East 522 601 31,000  Level Salt Lake Center
Thu 05:07:32 PM 42.9894 -109.4456 75° East 526 605 31,000  Level Salt Lake Center
Thu 05:08:34 PM 43.0450 -109.2639 67° East 537 618 31,000  Level Salt Lake Center
Thu 05:09:36 PM 43.1075 -109.0867 64° Northeast 540 621 31,000  Level Salt Lake Center
Thu 05:10:38 PM 43.1794 -108.8800 64° Northeast 538 619 31,000  Level Salt Lake Center
Thu 05:11:40 PM 43.2489 -108.7064 61° Northeast 540 621 31,000  Level Salt Lake Center
Thu 05:12:42 PM 43.3286 -108.5008 62° Northeast 545 627 31,000  Level Salt Lake Center
Thu 05:13:44 PM 43.4008 -108.3275 60° Northeast 546 628 31,000  Level Salt Lake Center
Thu 05:14:46 PM 43.4889 -108.1269 59° Northeast 548 631 31,000  Level Salt Lake Center
Thu 05:15:48 PM 43.5625 -107.9550 59° Northeast 545 627 31,000  Level Salt Lake Center
Thu 05:16:50 PM 43.6497 -107.7561 59° Northeast 543 625 31,000  Level Salt Lake Center
Thu 05:17:52 PM 43.7217 -107.5856 60° Northeast 539 620 31,000  Level Salt Lake Center
Thu 05:18:54 PM 43.8078 -107.3878 59° Northeast 547 629 31,000  Level Salt Lake Center
Thu 05:19:56 PM 43.8836 -107.2144 59° Northeast 548 631 31,000  Level Salt Lake Center
Thu 05:20:52 PM 43.9581 -107.0386 59° Northeast 550 633 31,000  Level Denver Center
Thu 05:22:00 PM 44.0425 -106.8317 60° Northeast 550 633 31,000  Level Salt Lake Center
Thu 05:23:02 PM 44.0869 -106.6156 74° East 524 603 31,000  Level Salt Lake Center
Thu 05:24:04 PM 44.0972 -106.4256 86° East 515 593 31,000  Level Salt Lake Center
Thu 05:25:06 PM 44.1111 -106.2328 84° East 517 595 31,000  Level Salt Lake Center
Thu 05:26:02 PM 44.1289 -106.0372 83° East 522 601 31,000  Level Denver Center
Thu 05:27:04 PM 44.1464 -105.8139 84° East 522 601 31,000 -48 Level Denver Center
Thu 05:28:06 PM 44.1611 -105.6250 84° East 519 597 30,900  Descending Denver Center
Thu 05:29:08 PM 44.1778 -105.4047 84° East 515 593 31,000 48 Climbing Denver Center
Thu 05:30:10 PM 44.1903 -105.2156 85° East 513 590 31,000  Level Denver Center
Thu 05:31:13 PM 44.2069 -104.9917 84° East 515 593 31,000  Level Denver Center
Thu 05:32:15 PM 44.2200 -104.7981 85° East 518 596 31,000  Level Denver Center
Thu 05:33:17 PM 44.2333 -104.6025 84° East 522 601 31,000  Level Denver Center
Thu 05:34:19 PM 44.2475 -104.3811 85° East 519 597 31,000  Level Denver Center
Thu 05:35:21 PM 44.2606 -104.1917 84° East 515 593 31,000  Level Denver Center
Thu 05:36:23 PM 44.2739 -103.9675 85° East 517 595 31,000  Level Denver Center
Thu 05:37:25 PM 44.2850 -103.7772 85° East 516 594 31,000  Level Denver Center
Thu 05:38:27 PM 44.2981 -103.5544 85° East 515 593 31,000  Level Denver Center
Thu 05:39:29 PM 44.3092 -103.3647 85° East 514 592 31,000  Level Denver Center
Thu 05:40:31 PM 44.3208 -103.1383 86° East 516 594 31,000  Level Denver Center
Thu 05:41:33 PM 44.3314 -102.9372 86° East 519 597 31,000  Level Denver Center
Thu 05:42:35 PM 44.3411 -102.7372 86° East 519 597 31,000  Level Denver Center
Thu 05:43:37 PM 44.3517 -102.5372 86° East 518 596 31,000  Level Denver Center
Thu 05:44:39 PM 44.3622 -102.3358 86° East 519 597 31,000  Level Denver Center
Thu 05:45:41 PM 44.3694 -102.1314 87° East 525 604 31,000  Level Denver Center
Thu 05:46:43 PM 44.3800 -101.8908 86° East 520 598 31,000  Level Denver Center
Thu 05:47:45 PM 44.3869 -101.6886 87° East 521 600 31,000  Level Denver Center
Thu 05:48:47 PM 44.3931 -101.4872 87° East 521 600 31,000  Level Denver Center
Thu 05:49:50 PM 44.3989 -101.2844 88° East 522 601 31,000  Level Denver Center
Thu 05:50:20 PM 44.4058 -101.1675 85° East 519 597 31,000  Level Minneapolis Center
Thu 05:51:22 PM 44.4139 -100.9656 87° East 519 597 31,000  Level Minneapolis Center
Thu 05:52:24 PM 44.4208 -100.7606 87° East 525 604 31,000  Level Minneapolis Center
Thu 05:53:26 PM 44.4275 -100.5567 87° East 527 606 31,000  Level Minneapolis Center
Thu 05:54:28 PM 44.4331 -100.3508 88° East 531 611 31,000  Level Minneapolis Center
Thu 05:55:31 PM 44.4408 -100.1064 87° East 529 609 31,000  Level Minneapolis Center
Thu 05:56:33 PM 44.4469 -99.9050 87° East 525 604 31,000  Level Minneapolis Center
Thu 05:57:35 PM 44.4514 -99.7028 88° East 524 603 31,000  Level Minneapolis Center
Thu 05:58:37 PM 44.4558 -99.5008 88° East 523 602 31,000  Level Minneapolis Center
Thu 05:59:39 PM 44.4606 -99.2997 88° East 521 600 31,000  Level Minneapolis Center
Thu 06:00:41 PM 44.4661 -99.0619 88° East 513 590 31,000  Level Minneapolis Center
Thu 06:01:43 PM 44.4703 -98.8633 88° East 513 590 31,000  Level Minneapolis Center
Thu 06:02:45 PM 44.4728 -98.6647 89° East 513 590 31,000  Level Minneapolis Center
Thu 06:03:47 PM 44.4775 -98.4642 88° East 515 593 31,000  Level Minneapolis Center
Thu 06:04:49 PM 44.4783 -98.2692 90° East 512 589 31,000  Level Minneapolis Center
Thu 06:05:52 PM 44.4772 -98.0308 90° East 511 588 31,000  Level Minneapolis Center
Thu 06:06:54 PM 44.4789 -97.8317 89° East 512 589 31,000 -581 Level Minneapolis Center
Thu 06:07:56 PM 44.4881 -97.6325 86° East 513 590 29,800 -1,258 Descending Minneapolis Center
Thu 06:08:58 PM 44.5011 -97.4400 85° East 502 578 28,400 -1,161 Descending Minneapolis Center
Thu 06:10:00 PM 44.5125 -97.2525 85° East 489 563 27,400 -968 Descending Minneapolis Center
Thu 06:11:02 PM 44.5231 -97.0631 85° East 488 562 26,400 -1,016 Descending Minneapolis Center
Thu 06:12:04 PM 44.5347 -96.8389 86° East 482 555 25,300 -1,016 Descending Minneapolis Center
Thu 06:13:06 PM 44.5453 -96.6550 85° East 476 548 24,300 -629 Descending Minneapolis Center
Thu 06:14:08 PM 44.5556 -96.4678 86° East 478 550 24,000 -145 Descending Minneapolis Center
Thu 06:15:10 PM 44.5656 -96.2789 86° East 483 556 24,000  Level Minneapolis Center
Thu 06:16:13 PM 44.5744 -96.0919 86° East 480 552 24,000  Level Minneapolis Center
Thu 06:17:15 PM 44.5836 -95.9036 86° East 480 552 24,000  Level Minneapolis Center
Thu 06:18:17 PM 44.5922 -95.7164 86° East 480 552 24,000 -48 Level Minneapolis Center
Thu 06:19:19 PM 44.6003 -95.5378 86° East 464 534 23,900 -581 Descending Minneapolis Center
Thu 06:20:21 PM 44.6086 -95.3194 87° East 466 536 22,800 -1,016 Descending Minneapolis Center
Thu 06:21:23 PM 44.6164 -95.1378 86° East 467 537 21,800 -968 Descending Minneapolis Center
Thu 06:22:25 PM 44.6231 -94.9617 87° East 460 529 20,800 -1,065 Descending Minneapolis Center
Thu 06:23:27 PM 44.6289 -94.7897 87° East 452 520 19,600 -1,790 Descending Minneapolis Center
Thu 06:24:29 PM 44.6353 -94.6214 87° East 445 512 17,100 -2,400 Descending Minneapolis Center
Thu 06:25:32 PM 44.6411 -94.4561 87° East 425 489 14,600 -2,496 Descending Minneapolis Center
Thu 06:26:34 PM 44.6664 -94.2750 79° East 394 453 11,900 -1,742 Descending Minneapolis Center
Thu 06:27:36 PM 44.6994 -94.1306 72° East 389 448 11,000 -629 Descending Minneapolis Center
Thu 06:28:38 PM 44.7308 -93.9897 73° East 378 435 10,600 -532 Descending Minneapolis Center
Thu 06:29:40 PM 44.7575 -93.8683 73° East 326 375 9,900 -1,113 Descending Minneapolis Center
Thu 06:30:42 PM 44.8100 -93.7817 49° Northeast 293 337 8,300 -1,403 Descending Minneapolis Center
Thu 06:31:44 PM 44.8631 -93.7000 47° Northeast 283 326 7,000 -1,065 Descending Minneapolis Center
Thu 06:32:46 PM 44.9261 -93.6053 47° Northeast 275 316 6,100 -1,161 Descending Minneapolis Center
Thu 06:33:48 PM 44.9764 -93.5281 47° Northeast 266 306 4,600 -1,016 Descending Minneapolis Center
Thu 06:34:50 PM 44.9753 -93.4378 91° East 244 281 4,000 -581 Descending Minneapolis Center

Login

Don't have an account? Register now (free) for customized features, flight alerts, and more!